sensor_id;sensor_type;location;lat;lon;timestamp;P1;durP1;ratioP1;P2;durP2;ratioP2
58208;SDS011;44006;52.028;4.696;2023-05-10T00:00:03;48.75;;;27.42;;
58208;SDS011;44006;52.028;4.696;2023-05-10T00:02:29;52.30;;;28.30;;
58208;SDS011;44006;52.028;4.696;2023-05-10T00:04:57;48.47;;;28.52;;
58208;SDS011;44006;52.028;4.696;2023-05-10T00:07:22;47.97;;;27.95;;
58208;SDS011;44006;52.028;4.696;2023-05-10T00:09:47;44.58;;;27.45;;
58208;SDS011;44006;52.028;4.696;2023-05-10T00:12:12;47.47;;;27.35;;
58208;SDS011;44006;52.028;4.696;2023-05-10T00:14:38;47.42;;;27.92;;
58208;SDS011;44006;52.028;4.696;2023-05-10T00:17:03;51.70;;;28.85;;
58208;SDS011;44006;52.028;4.696;2023-05-10T00:19:28;49.40;;;28.73;;
58208;SDS011;44006;52.028;4.696;2023-05-10T00:21:53;55.90;;;29.37;;
58208;SDS011;44006;52.028;4.696;2023-05-10T00:24:20;53.08;;;29.65;;
58208;SDS011;44006;52.028;4.696;2023-05-10T00:26:46;49.72;;;29.15;;
58208;SDS011;44006;52.028;4.696;2023-05-10T00:29:11;47.88;;;28.55;;
58208;SDS011;44006;52.028;4.696;2023-05-10T00:31:37;47.78;;;29.10;;
58208;SDS011;44006;52.028;4.696;2023-05-10T00:34:02;48.97;;;28.33;;
58208;SDS011;44006;52.028;4.696;2023-05-10T00:36:27;47.05;;;29.00;;
58208;SDS011;44006;52.028;4.696;2023-05-10T00:38:52;43.78;;;27.23;;
58208;SDS011;44006;52.028;4.696;2023-05-10T00:41:18;47.47;;;28.50;;
58208;SDS011;44006;52.028;4.696;2023-05-10T00:43:48;52.92;;;29.65;;
58208;SDS011;44006;52.028;4.696;2023-05-10T00:46:14;47.22;;;29.17;;
58208;SDS011;44006;52.028;4.696;2023-05-10T00:48:43;44.38;;;27.92;;
58208;SDS011;44006;52.028;4.696;2023-05-10T00:51:11;47.63;;;30.08;;
58208;SDS011;44006;52.028;4.696;2023-05-10T00:53:37;48.28;;;28.80;;
58208;SDS011;44006;52.028;4.696;2023-05-10T00:56:03;52.38;;;28.70;;
58208;SDS011;44006;52.028;4.696;2023-05-10T00:58:29;45.72;;;28.85;;
58208;SDS011;44006;52.028;4.696;2023-05-10T01:00:56;51.75;;;31.63;;
58208;SDS011;44006;52.028;4.696;2023-05-10T01:03:23;52.55;;;30.08;;
58208;SDS011;44006;52.028;4.696;2023-05-10T01:05:48;51.03;;;29.38;;
58208;SDS011;44006;52.028;4.696;2023-05-10T01:08:13;46.65;;;29.75;;
58208;SDS011;44006;52.028;4.696;2023-05-10T01:10:39;56.13;;;30.30;;
58208;SDS011;44006;52.028;4.696;2023-05-10T01:13:04;50.10;;;29.27;;
58208;SDS011;44006;52.028;4.696;2023-05-10T01:15:30;50.30;;;29.50;;
58208;SDS011;44006;52.028;4.696;2023-05-10T01:17:56;57.70;;;32.22;;
58208;SDS011;44006;52.028;4.696;2023-05-10T01:20:21;56.08;;;31.40;;
58208;SDS011;44006;52.028;4.696;2023-05-10T01:35:42;58.72;;;30.88;;
58208;SDS011;44006;52.028;4.696;2023-05-10T01:40:47;63.47;;;35.33;;
58208;SDS011;44006;52.028;4.696;2023-05-10T01:43:22;70.40;;;36.10;;
58208;SDS011;44006;52.028;4.696;2023-05-10T01:45:50;67.40;;;34.80;;
58208;SDS011;44006;52.028;4.696;2023-05-10T01:48:20;71.07;;;35.40;;
58208;SDS011;44006;52.028;4.696;2023-05-10T01:50:46;80.90;;;35.40;;
58208;SDS011;44006;52.028;4.696;2023-05-10T01:53:13;75.65;;;35.35;;
58208;SDS011;44006;52.028;4.696;2023-05-10T01:55:47;74.30;;;35.20;;
58208;SDS011;44006;52.028;4.696;2023-05-10T01:58:27;77.72;;;34.30;;
58208;SDS011;44006;52.028;4.696;2023-05-10T02:00:53;81.60;;;34.47;;
58208;SDS011;44006;52.028;4.696;2023-05-10T02:03:20;75.05;;;36.00;;
58208;SDS011;44006;52.028;4.696;2023-05-10T02:05:47;83.78;;;36.38;;
58208;SDS011;44006;52.028;4.696;2023-05-10T02:08:13;82.75;;;35.55;;
58208;SDS011;44006;52.028;4.696;2023-05-10T02:10:39;80.50;;;36.03;;
58208;SDS011;44006;52.028;4.696;2023-05-10T02:13:05;84.45;;;37.60;;
58208;SDS011;44006;52.028;4.696;2023-05-10T02:15:31;77.95;;;37.30;;
58208;SDS011;44006;52.028;4.696;2023-05-10T02:17:57;86.55;;;39.13;;
58208;SDS011;44006;52.028;4.696;2023-05-10T02:20:23;85.95;;;39.80;;
58208;SDS011;44006;52.028;4.696;2023-05-10T02:22:51;85.50;;;37.88;;
58208;SDS011;44006;52.028;4.696;2023-05-10T02:25:18;83.07;;;40.08;;
58208;SDS011;44006;52.028;4.696;2023-05-10T02:27:44;73.65;;;36.28;;
58208;SDS011;44006;52.028;4.696;2023-05-10T02:30:09;68.30;;;35.75;;
58208;SDS011;44006;52.028;4.696;2023-05-10T02:32:35;79.22;;;38.67;;
58208;SDS011;44006;52.028;4.696;2023-05-10T02:35:02;76.00;;;38.10;;
58208;SDS011;44006;52.028;4.696;2023-05-10T02:37:28;76.38;;;37.90;;
58208;SDS011;44006;52.028;4.696;2023-05-10T02:39:54;68.55;;;37.47;;
58208;SDS011;44006;52.028;4.696;2023-05-10T02:42:21;69.05;;;35.58;;
58208;SDS011;44006;52.028;4.696;2023-05-10T02:44:48;73.25;;;37.95;;
58208;SDS011;44006;52.028;4.696;2023-05-10T02:47:15;84.65;;;39.95;;
58208;SDS011;44006;52.028;4.696;2023-05-10T02:49:41;88.80;;;41.53;;
58208;SDS011;44006;52.028;4.696;2023-05-10T02:52:06;89.63;;;43.13;;
58208;SDS011;44006;52.028;4.696;2023-05-10T02:54:34;92.47;;;41.13;;
58208;SDS011;44006;52.028;4.696;2023-05-10T02:57:04;96.28;;;43.92;;
58208;SDS011;44006;52.028;4.696;2023-05-10T02:59:33;83.13;;;40.42;;
58208;SDS011;44006;52.028;4.696;2023-05-10T03:01:59;85.82;;;41.20;;
58208;SDS011;44006;52.028;4.696;2023-05-10T03:04:25;91.07;;;44.83;;
58208;SDS011;44006;52.028;4.696;2023-05-10T03:06:50;100.88;;;47.15;;
58208;SDS011;44006;52.028;4.696;2023-05-10T03:09:17;111.00;;;49.85;;
58208;SDS011;44006;52.028;4.696;2023-05-10T03:14:45;98.18;;;48.13;;
58208;SDS011;44006;52.028;4.696;2023-05-10T03:22:08;111.80;;;53.37;;
58208;SDS011;44006;52.028;4.696;2023-05-10T03:24:41;110.25;;;49.92;;
58208;SDS011;44006;52.028;4.696;2023-05-10T03:27:07;105.93;;;50.30;;
58208;SDS011;44006;52.028;4.696;2023-05-10T03:29:33;111.90;;;49.50;;
58208;SDS011;44006;52.028;4.696;2023-05-10T03:31:58;101.57;;;49.50;;
58208;SDS011;44006;52.028;4.696;2023-05-10T03:34:24;97.40;;;46.78;;
58208;SDS011;44006;52.028;4.696;2023-05-10T03:36:50;91.90;;;44.35;;
58208;SDS011;44006;52.028;4.696;2023-05-10T03:39:17;97.03;;;43.25;;
58208;SDS011;44006;52.028;4.696;2023-05-10T03:41:42;81.70;;;41.20;;
58208;SDS011;44006;52.028;4.696;2023-05-10T03:44:07;74.03;;;40.42;;
58208;SDS011;44006;52.028;4.696;2023-05-10T03:46:33;77.47;;;39.78;;
58208;SDS011;44006;52.028;4.696;2023-05-10T03:48:59;67.68;;;36.38;;
58208;SDS011;44006;52.028;4.696;2023-05-10T03:51:24;84.05;;;41.38;;
58208;SDS011;44006;52.028;4.696;2023-05-10T03:53:53;74.03;;;39.35;;
58208;SDS011;44006;52.028;4.696;2023-05-10T03:56:18;82.55;;;42.75;;
58208;SDS011;44006;52.028;4.696;2023-05-10T03:58:44;87.13;;;41.92;;
58208;SDS011;44006;52.028;4.696;2023-05-10T04:01:09;84.35;;;43.38;;
58208;SDS011;44006;52.028;4.696;2023-05-10T04:03:35;91.28;;;43.00;;
58208;SDS011;44006;52.028;4.696;2023-05-10T04:06:01;81.70;;;41.75;;
58208;SDS011;44006;52.028;4.696;2023-05-10T04:08:27;77.93;;;43.30;;
58208;SDS011;44006;52.028;4.696;2023-05-10T04:10:52;78.05;;;42.45;;
58208;SDS011;44006;52.028;4.696;2023-05-10T04:13:17;70.60;;;39.33;;
58208;SDS011;44006;52.028;4.696;2023-05-10T04:15:42;73.10;;;39.08;;
58208;SDS011;44006;52.028;4.696;2023-05-10T04:18:08;65.05;;;39.33;;
58208;SDS011;44006;52.028;4.696;2023-05-10T04:20:36;70.47;;;39.22;;
58208;SDS011;44006;52.028;4.696;2023-05-10T04:23:01;63.45;;;37.40;;
58208;SDS011;44006;52.028;4.696;2023-05-10T04:25:26;77.32;;;43.17;;
58208;SDS011;44006;52.028;4.696;2023-05-10T04:27:51;77.97;;;42.83;;
58208;SDS011;44006;52.028;4.696;2023-05-10T04:30:17;80.93;;;45.03;;
58208;SDS011;44006;52.028;4.696;2023-05-10T04:32:42;76.65;;;43.63;;
58208;SDS011;44006;52.028;4.696;2023-05-10T04:35:07;78.32;;;45.95;;
58208;SDS011;44006;52.028;4.696;2023-05-10T04:37:34;75.57;;;46.70;;
58208;SDS011;44006;52.028;4.696;2023-05-10T04:39:59;69.75;;;40.80;;
58208;SDS011;44006;52.028;4.696;2023-05-10T04:42:25;72.60;;;43.72;;
58208;SDS011;44006;52.028;4.696;2023-05-10T04:44:50;69.85;;;42.17;;
58208;SDS011;44006;52.028;4.696;2023-05-10T04:47:17;66.32;;;41.95;;
58208;SDS011;44006;52.028;4.696;2023-05-10T04:49:43;65.50;;;41.35;;
58208;SDS011;44006;52.028;4.696;2023-05-10T04:52:08;69.75;;;41.25;;
58208;SDS011;44006;52.028;4.696;2023-05-10T04:54:33;66.00;;;39.05;;
58208;SDS011;44006;52.028;4.696;2023-05-10T04:56:59;64.47;;;38.05;;
58208;SDS011;44006;52.028;4.696;2023-05-10T04:59:25;62.17;;;37.22;;
58208;SDS011;44006;52.028;4.696;2023-05-10T05:04:46;59.05;;;33.05;;
58208;SDS011;44006;52.028;4.696;2023-05-10T05:07:12;55.45;;;32.97;;
58208;SDS011;44006;52.028;4.696;2023-05-10T05:09:37;58.03;;;33.17;;
58208;SDS011;44006;52.028;4.696;2023-05-10T05:12:02;61.22;;;33.67;;
58208;SDS011;44006;52.028;4.696;2023-05-10T05:14:28;52.50;;;31.33;;
58208;SDS011;44006;52.028;4.696;2023-05-10T05:16:53;52.22;;;31.98;;
58208;SDS011;44006;52.028;4.696;2023-05-10T05:19:18;57.13;;;31.25;;
58208;SDS011;44006;52.028;4.696;2023-05-10T05:21:44;53.70;;;30.60;;
58208;SDS011;44006;52.028;4.696;2023-05-10T05:24:09;60.95;;;32.95;;
58208;SDS011;44006;52.028;4.696;2023-05-10T05:26:37;59.85;;;30.52;;
58208;SDS011;44006;52.028;4.696;2023-05-10T05:29:02;56.20;;;31.55;;
58208;SDS011;44006;52.028;4.696;2023-05-10T05:31:28;52.25;;;29.85;;
58208;SDS011;44006;52.028;4.696;2023-05-10T05:33:54;53.08;;;29.10;;
58208;SDS011;44006;52.028;4.696;2023-05-10T05:36:19;49.70;;;27.55;;
58208;SDS011;44006;52.028;4.696;2023-05-10T05:38:44;46.20;;;25.75;;
58208;SDS011;44006;52.028;4.696;2023-05-10T05:41:10;45.17;;;24.70;;
58208;SDS011;44006;52.028;4.696;2023-05-10T05:43:35;46.55;;;24.80;;
58208;SDS011;44006;52.028;4.696;2023-05-10T05:46:00;44.55;;;24.10;;
58208;SDS011;44006;52.028;4.696;2023-05-10T05:48:27;42.25;;;23.92;;
58208;SDS011;44006;52.028;4.696;2023-05-10T05:50:55;41.20;;;23.08;;
58208;SDS011;44006;52.028;4.696;2023-05-10T05:53:21;41.08;;;23.77;;
58208;SDS011;44006;52.028;4.696;2023-05-10T05:55:53;44.35;;;23.52;;
58208;SDS011;44006;52.028;4.696;2023-05-10T05:58:25;40.88;;;22.38;;
58208;SDS011;44006;52.028;4.696;2023-05-10T06:00:50;45.38;;;22.48;;
58208;SDS011;44006;52.028;4.696;2023-05-10T06:03:17;39.40;;;21.85;;
58208;SDS011;44006;52.028;4.696;2023-05-10T06:05:43;45.38;;;23.75;;
58208;SDS011;44006;52.028;4.696;2023-05-10T06:08:08;49.13;;;24.67;;
58208;SDS011;44006;52.028;4.696;2023-05-10T06:10:33;47.45;;;24.38;;
58208;SDS011;44006;52.028;4.696;2023-05-10T06:12:59;47.10;;;21.80;;
58208;SDS011;44006;52.028;4.696;2023-05-10T06:15:24;44.22;;;20.58;;
58208;SDS011;44006;52.028;4.696;2023-05-10T06:17:50;42.22;;;20.38;;
58208;SDS011;44006;52.028;4.696;2023-05-10T06:20:15;40.20;;;19.75;;
58208;SDS011;44006;52.028;4.696;2023-05-10T06:22:42;40.80;;;20.13;;
58208;SDS011;44006;52.028;4.696;2023-05-10T06:25:08;35.10;;;18.52;;
58208;SDS011;44006;52.028;4.696;2023-05-10T06:27:33;35.38;;;16.67;;
58208;SDS011;44006;52.028;4.696;2023-05-10T06:29:59;32.35;;;15.98;;
58208;SDS011;44006;52.028;4.696;2023-05-10T06:32:24;28.58;;;14.43;;
58208;SDS011;44006;52.028;4.696;2023-05-10T06:34:49;29.85;;;14.75;;
58208;SDS011;44006;52.028;4.696;2023-05-10T06:37:15;24.63;;;12.95;;
58208;SDS011;44006;52.028;4.696;2023-05-10T06:39:40;26.50;;;13.18;;
58208;SDS011;44006;52.028;4.696;2023-05-10T06:42:05;22.02;;;12.32;;
58208;SDS011;44006;52.028;4.696;2023-05-10T06:44:30;22.05;;;12.75;;
58208;SDS011;44006;52.028;4.696;2023-05-10T06:46:56;22.95;;;12.10;;
58208;SDS011;44006;52.028;4.696;2023-05-10T06:49:21;22.42;;;12.55;;
58208;SDS011;44006;52.028;4.696;2023-05-10T06:51:47;26.65;;;12.27;;
58208;SDS011;44006;52.028;4.696;2023-05-10T06:54:12;20.40;;;11.57;;
58208;SDS011;44006;52.028;4.696;2023-05-10T06:56:37;19.55;;;11.23;;
58208;SDS011;44006;52.028;4.696;2023-05-10T06:59:02;19.10;;;11.00;;
58208;SDS011;44006;52.028;4.696;2023-05-10T07:01:28;18.90;;;11.23;;
58208;SDS011;44006;52.028;4.696;2023-05-10T07:03:53;18.65;;;10.63;;
58208;SDS011;44006;52.028;4.696;2023-05-10T07:06:18;18.90;;;11.10;;
58208;SDS011;44006;52.028;4.696;2023-05-10T07:08:45;17.25;;;11.45;;
58208;SDS011;44006;52.028;4.696;2023-05-10T07:11:11;17.33;;;11.20;;
58208;SDS011;44006;52.028;4.696;2023-05-10T07:13:36;20.25;;;11.98;;
58208;SDS011;44006;52.028;4.696;2023-05-10T07:16:04;19.02;;;11.80;;
58208;SDS011;44006;52.028;4.696;2023-05-10T07:18:31;18.92;;;12.07;;
58208;SDS011;44006;52.028;4.696;2023-05-10T07:20:56;14.68;;;9.40;;
58208;SDS011;44006;52.028;4.696;2023-05-10T07:23:21;16.05;;;9.60;;
58208;SDS011;44006;52.028;4.696;2023-05-10T07:25:49;14.48;;;9.32;;
58208;SDS011;44006;52.028;4.696;2023-05-10T07:28:16;14.70;;;7.95;;
58208;SDS011;44006;52.028;4.696;2023-05-10T07:30:41;11.35;;;7.78;;
58208;SDS011;44006;52.028;4.696;2023-05-10T07:33:07;12.82;;;7.78;;
58208;SDS011;44006;52.028;4.696;2023-05-10T07:35:35;11.30;;;7.30;;
58208;SDS011;44006;52.028;4.696;2023-05-10T07:38:00;12.60;;;7.13;;
58208;SDS011;44006;52.028;4.696;2023-05-10T07:40:36;13.68;;;9.05;;
58208;SDS011;44006;52.028;4.696;2023-05-10T07:43:01;10.85;;;6.70;;
58208;SDS011;44006;52.028;4.696;2023-05-10T07:45:27;12.70;;;7.43;;
58208;SDS011;44006;52.028;4.696;2023-05-10T07:47:54;14.43;;;7.30;;
58208;SDS011;44006;52.028;4.696;2023-05-10T07:50:22;11.85;;;6.35;;
58208;SDS011;44006;52.028;4.696;2023-05-10T07:52:50;10.82;;;6.45;;
58208;SDS011;44006;52.028;4.696;2023-05-10T07:55:17;10.52;;;6.90;;
58208;SDS011;44006;52.028;4.696;2023-05-10T07:57:43;11.63;;;7.30;;
58208;SDS011;44006;52.028;4.696;2023-05-10T08:00:09;11.70;;;7.22;;
58208;SDS011;44006;52.028;4.696;2023-05-10T08:02:35;11.10;;;6.90;;
58208;SDS011;44006;52.028;4.696;2023-05-10T08:05:02;11.68;;;7.47;;
58208;SDS011;44006;52.028;4.696;2023-05-10T08:07:27;11.30;;;8.00;;
58208;SDS011;44006;52.028;4.696;2023-05-10T08:09:53;11.50;;;7.65;;
58208;SDS011;44006;52.028;4.696;2023-05-10T08:12:21;11.63;;;7.72;;
58208;SDS011;44006;52.028;4.696;2023-05-10T08:14:46;13.52;;;8.70;;
58208;SDS011;44006;52.028;4.696;2023-05-10T08:17:11;13.10;;;7.55;;
58208;SDS011;44006;52.028;4.696;2023-05-10T08:19:37;14.35;;;8.93;;
58208;SDS011;44006;52.028;4.696;2023-05-10T08:22:02;14.35;;;8.10;;
58208;SDS011;44006;52.028;4.696;2023-05-10T08:24:27;12.05;;;7.68;;
58208;SDS011;44006;52.028;4.696;2023-05-10T08:26:54;11.30;;;7.45;;
58208;SDS011;44006;52.028;4.696;2023-05-10T08:29:19;16.67;;;8.40;;
58208;SDS011;44006;52.028;4.696;2023-05-10T08:31:51;14.85;;;8.63;;
58208;SDS011;44006;52.028;4.696;2023-05-10T08:34:16;15.80;;;8.45;;
58208;SDS011;44006;52.028;4.696;2023-05-10T08:36:42;15.68;;;8.20;;
58208;SDS011;44006;52.028;4.696;2023-05-10T08:39:10;14.80;;;8.30;;
58208;SDS011;44006;52.028;4.696;2023-05-10T08:41:43;14.35;;;8.00;;
58208;SDS011;44006;52.028;4.696;2023-05-10T08:44:13;12.65;;;8.20;;
58208;SDS011;44006;52.028;4.696;2023-05-10T08:46:38;14.52;;;7.85;;
58208;SDS011;44006;52.028;4.696;2023-05-10T08:49:09;11.88;;;7.75;;
58208;SDS011;44006;52.028;4.696;2023-05-10T08:51:47;13.23;;;7.85;;
58208;SDS011;44006;52.028;4.696;2023-05-10T08:54:23;13.10;;;7.75;;
58208;SDS011;44006;52.028;4.696;2023-05-10T08:56:51;12.75;;;8.00;;
58208;SDS011;44006;52.028;4.696;2023-05-10T08:59:31;15.95;;;9.10;;
58208;SDS011;44006;52.028;4.696;2023-05-10T09:01:59;19.00;;;9.25;;
58208;SDS011;44006;52.028;4.696;2023-05-10T09:04:25;15.35;;;8.93;;
58208;SDS011;44006;52.028;4.696;2023-05-10T09:06:55;19.58;;;8.95;;
58208;SDS011;44006;52.028;4.696;2023-05-10T09:11:47;15.70;;;8.93;;
58208;SDS011;44006;52.028;4.696;2023-05-10T09:14:13;14.13;;;8.75;;
58208;SDS011;44006;52.028;4.696;2023-05-10T09:16:40;20.65;;;8.80;;
58208;SDS011;44006;52.028;4.696;2023-05-10T09:19:07;15.32;;;9.95;;
58208;SDS011;44006;52.028;4.696;2023-05-10T09:21:34;15.90;;;9.27;;
58208;SDS011;44006;52.028;4.696;2023-05-10T09:24:07;14.43;;;9.00;;
58208;SDS011;44006;52.028;4.696;2023-05-10T09:26:33;19.98;;;10.15;;
58208;SDS011;44006;52.028;4.696;2023-05-10T09:28:59;17.27;;;10.13;;
58208;SDS011;44006;52.028;4.696;2023-05-10T09:31:44;19.00;;;9.50;;
58208;SDS011;44006;52.028;4.696;2023-05-10T09:34:11;15.82;;;9.85;;
58208;SDS011;44006;52.028;4.696;2023-05-10T09:36:37;14.43;;;8.63;;
58208;SDS011;44006;52.028;4.696;2023-05-10T09:39:14;16.63;;;9.82;;
58208;SDS011;44006;52.028;4.696;2023-05-10T09:41:39;20.25;;;10.18;;
58208;SDS011;44006;52.028;4.696;2023-05-10T09:44:09;16.73;;;9.25;;
58208;SDS011;44006;52.028;4.696;2023-05-10T09:46:35;16.80;;;9.13;;
58208;SDS011;44006;52.028;4.696;2023-05-10T09:49:03;16.60;;;8.70;;
58208;SDS011;44006;52.028;4.696;2023-05-10T09:51:31;15.55;;;8.55;;
58208;SDS011;44006;52.028;4.696;2023-05-10T09:54:10;14.45;;;7.60;;
58208;SDS011;44006;52.028;4.696;2023-05-10T09:56:37;13.30;;;7.57;;
58208;SDS011;44006;52.028;4.696;2023-05-10T09:59:05;11.38;;;7.18;;
58208;SDS011;44006;52.028;4.696;2023-05-10T10:01:34;10.00;;;6.88;;
58208;SDS011;44006;52.028;4.696;2023-05-10T10:04:02;10.07;;;6.55;;
58208;SDS011;44006;52.028;4.696;2023-05-10T10:06:27;11.75;;;7.03;;
58208;SDS011;44006;52.028;4.696;2023-05-10T10:08:53;12.68;;;7.35;;
58208;SDS011;44006;52.028;4.696;2023-05-10T10:11:19;15.48;;;7.40;;
58208;SDS011;44006;52.028;4.696;2023-05-10T10:13:44;15.25;;;8.00;;
58208;SDS011;44006;52.028;4.696;2023-05-10T10:16:10;12.65;;;7.10;;
58208;SDS011;44006;52.028;4.696;2023-05-10T10:18:38;10.57;;;7.13;;
58208;SDS011;44006;52.028;4.696;2023-05-10T10:21:06;11.68;;;7.60;;
58208;SDS011;44006;52.028;4.696;2023-05-10T10:23:33;12.13;;;7.68;;
58208;SDS011;44006;52.028;4.696;2023-05-10T10:25:59;12.02;;;7.78;;
58208;SDS011;44006;52.028;4.696;2023-05-10T10:33:51;15.35;;;8.23;;
58208;SDS011;44006;52.028;4.696;2023-05-10T10:36:20;12.23;;;8.15;;
58208;SDS011;44006;52.028;4.696;2023-05-10T10:41:22;13.15;;;8.30;;
58208;SDS011;44006;52.028;4.696;2023-05-10T10:44:22;11.80;;;8.05;;
58208;SDS011;44006;52.028;4.696;2023-05-10T10:46:54;14.55;;;8.68;;
58208;SDS011;44006;52.028;4.696;2023-05-10T10:49:22;12.75;;;8.23;;
58208;SDS011;44006;52.028;4.696;2023-05-10T10:52:31;12.55;;;8.60;;
58208;SDS011;44006;52.028;4.696;2023-05-10T10:54:36;13.85;;;8.65;;
58208;SDS011;44006;52.028;4.696;2023-05-10T10:57:12;15.40;;;8.52;;
58208;SDS011;44006;52.028;4.696;2023-05-10T10:59:44;16.10;;;9.68;;
58208;SDS011;44006;52.028;4.696;2023-05-10T11:02:10;24.45;;;11.57;;
58208;SDS011;44006;52.028;4.696;2023-05-10T11:04:55;28.98;;;12.90;;
58208;SDS011;44006;52.028;4.696;2023-05-10T11:07:21;25.10;;;13.75;;
58208;SDS011;44006;52.028;4.696;2023-05-10T11:09:49;23.08;;;12.20;;
58208;SDS011;44006;52.028;4.696;2023-05-10T11:12:14;22.98;;;11.25;;
58208;SDS011;44006;52.028;4.696;2023-05-10T11:14:40;17.33;;;11.00;;
58208;SDS011;44006;52.028;4.696;2023-05-10T11:20:06;23.40;;;11.27;;
58208;SDS011;44006;52.028;4.696;2023-05-10T11:22:31;18.95;;;11.57;;
58208;SDS011;44006;52.028;4.696;2023-05-10T11:25:14;20.25;;;11.73;;
58208;SDS011;44006;52.028;4.696;2023-05-10T11:27:40;23.05;;;11.15;;
58208;SDS011;44006;52.028;4.696;2023-05-10T11:30:06;22.67;;;11.20;;
58208;SDS011;44006;52.028;4.696;2023-05-10T11:32:31;17.02;;;10.68;;
58208;SDS011;44006;52.028;4.696;2023-05-10T11:35:00;19.58;;;10.43;;
58208;SDS011;44006;52.028;4.696;2023-05-10T11:37:31;18.20;;;10.25;;
58208;SDS011;44006;52.028;4.696;2023-05-10T11:39:59;19.00;;;10.80;;
58208;SDS011;44006;52.028;4.696;2023-05-10T11:42:24;22.13;;;11.60;;
58208;SDS011;44006;52.028;4.696;2023-05-10T11:44:49;20.10;;;11.70;;
58208;SDS011;44006;52.028;4.696;2023-05-10T11:47:15;22.75;;;11.07;;
58208;SDS011;44006;52.028;4.696;2023-05-10T11:49:43;22.60;;;12.00;;
58208;SDS011;44006;52.028;4.696;2023-05-10T11:52:08;20.25;;;11.65;;
58208;SDS011;44006;52.028;4.696;2023-05-10T11:54:35;21.55;;;12.27;;
58208;SDS011;44006;52.028;4.696;2023-05-10T11:57:07;20.05;;;12.10;;
58208;SDS011;44006;52.028;4.696;2023-05-10T11:59:36;18.55;;;12.30;;
58208;SDS011;44006;52.028;4.696;2023-05-10T12:02:01;19.98;;;11.77;;
58208;SDS011;44006;52.028;4.696;2023-05-10T12:04:26;21.02;;;12.82;;
58208;SDS011;44006;52.028;4.696;2023-05-10T12:06:54;25.35;;;13.52;;
58208;SDS011;44006;52.028;4.696;2023-05-10T12:09:19;21.75;;;12.48;;
58208;SDS011;44006;52.028;4.696;2023-05-10T12:11:44;18.95;;;12.30;;
58208;SDS011;44006;52.028;4.696;2023-05-10T12:14:11;18.05;;;12.13;;
58208;SDS011;44006;52.028;4.696;2023-05-10T12:16:37;18.55;;;11.73;;
58208;SDS011;44006;52.028;4.696;2023-05-10T12:19:02;18.67;;;12.68;;
58208;SDS011;44006;52.028;4.696;2023-05-10T12:21:29;16.20;;;11.25;;
58208;SDS011;44006;52.028;4.696;2023-05-10T12:23:59;17.60;;;11.93;;
58208;SDS011;44006;52.028;4.696;2023-05-10T12:26:25;18.60;;;12.10;;
58208;SDS011;44006;52.028;4.696;2023-05-10T12:28:54;16.15;;;10.30;;
58208;SDS011;44006;52.028;4.696;2023-05-10T12:31:19;20.13;;;11.90;;
58208;SDS011;44006;52.028;4.696;2023-05-10T12:33:44;21.30;;;11.55;;
58208;SDS011;44006;52.028;4.696;2023-05-10T12:36:12;18.38;;;11.73;;
58208;SDS011;44006;52.028;4.696;2023-05-10T12:38:38;18.73;;;11.25;;
58208;SDS011;44006;52.028;4.696;2023-05-10T12:41:04;19.63;;;11.13;;
58208;SDS011;44006;52.028;4.696;2023-05-10T12:43:31;15.93;;;10.27;;
58208;SDS011;44006;52.028;4.696;2023-05-10T12:45:56;19.38;;;11.07;;
58208;SDS011;44006;52.028;4.696;2023-05-10T12:48:22;17.50;;;10.45;;
58208;SDS011;44006;52.028;4.696;2023-05-10T12:50:47;17.30;;;9.65;;
58208;SDS011;44006;52.028;4.696;2023-05-10T12:53:13;16.75;;;9.23;;
58208;SDS011;44006;52.028;4.696;2023-05-10T12:55:40;14.73;;;9.40;;
58208;SDS011;44006;52.028;4.696;2023-05-10T12:58:05;17.27;;;9.25;;
58208;SDS011;44006;52.028;4.696;2023-05-10T13:00:31;14.57;;;8.57;;
58208;SDS011;44006;52.028;4.696;2023-05-10T13:02:56;14.60;;;9.20;;
58208;SDS011;44006;52.028;4.696;2023-05-10T13:05:21;15.68;;;7.85;;
58208;SDS011;44006;52.028;4.696;2023-05-10T13:07:46;17.23;;;9.13;;
58208;SDS011;44006;52.028;4.696;2023-05-10T13:10:12;15.37;;;9.07;;
58208;SDS011;44006;52.028;4.696;2023-05-10T13:12:37;14.30;;;9.05;;
58208;SDS011;44006;52.028;4.696;2023-05-10T13:15:02;19.10;;;10.57;;
58208;SDS011;44006;52.028;4.696;2023-05-10T13:17:28;16.95;;;11.10;;
58208;SDS011;44006;52.028;4.696;2023-05-10T13:19:53;19.02;;;10.25;;
58208;SDS011;44006;52.028;4.696;2023-05-10T13:22:18;19.60;;;10.50;;
58208;SDS011;44006;52.028;4.696;2023-05-10T13:24:43;18.65;;;10.80;;
58208;SDS011;44006;52.028;4.696;2023-05-10T13:27:11;16.60;;;10.37;;
58208;SDS011;44006;52.028;4.696;2023-05-10T13:29:36;19.02;;;11.32;;
58208;SDS011;44006;52.028;4.696;2023-05-10T13:32:01;18.52;;;10.30;;
58208;SDS011;44006;52.028;4.696;2023-05-10T13:34:27;17.30;;;10.35;;
58208;SDS011;44006;52.028;4.696;2023-05-10T13:36:52;18.20;;;10.52;;
58208;SDS011;44006;52.028;4.696;2023-05-10T13:39:18;14.48;;;9.52;;
58208;SDS011;44006;52.028;4.696;2023-05-10T13:41:44;15.20;;;9.10;;
58208;SDS011;44006;52.028;4.696;2023-05-10T13:44:11;17.35;;;9.60;;
58208;SDS011;44006;52.028;4.696;2023-05-10T13:46:37;15.68;;;9.80;;
58208;SDS011;44006;52.028;4.696;2023-05-10T13:49:04;13.95;;;8.70;;
58208;SDS011;44006;52.028;4.696;2023-05-10T13:51:29;13.20;;;8.25;;
58208;SDS011;44006;52.028;4.696;2023-05-10T13:54:05;12.95;;;7.78;;
58208;SDS011;44006;52.028;4.696;2023-05-10T13:56:30;14.10;;;8.57;;
58208;SDS011;44006;52.028;4.696;2023-05-10T13:58:57;11.25;;;7.30;;
58208;SDS011;44006;52.028;4.696;2023-05-10T14:01:23;11.93;;;8.07;;
58208;SDS011;44006;52.028;4.696;2023-05-10T14:03:48;12.27;;;7.13;;
58208;SDS011;44006;52.028;4.696;2023-05-10T14:06:16;11.27;;;6.05;;
58208;SDS011;44006;52.028;4.696;2023-05-10T14:08:42;13.05;;;6.68;;
58208;SDS011;44006;52.028;4.696;2023-05-10T14:11:07;10.13;;;6.70;;
58208;SDS011;44006;52.028;4.696;2023-05-10T14:13:33;12.35;;;7.70;;
58208;SDS011;44006;52.028;4.696;2023-05-10T14:15:58;14.40;;;7.38;;
58208;SDS011;44006;52.028;4.696;2023-05-10T14:18:26;15.20;;;7.38;;
58208;SDS011;44006;52.028;4.696;2023-05-10T14:20:51;13.68;;;7.18;;
58208;SDS011;44006;52.028;4.696;2023-05-10T14:23:16;9.93;;;6.60;;
58208;SDS011;44006;52.028;4.696;2023-05-10T14:25:45;11.77;;;7.07;;
58208;SDS011;44006;52.028;4.696;2023-05-10T14:28:10;10.98;;;6.90;;
58208;SDS011;44006;52.028;4.696;2023-05-10T14:30:36;10.38;;;6.85;;
58208;SDS011;44006;52.028;4.696;2023-05-10T14:33:04;10.77;;;6.63;;
58208;SDS011;44006;52.028;4.696;2023-05-10T14:35:29;8.55;;;6.13;;
58208;SDS011;44006;52.028;4.696;2023-05-10T14:37:57;10.95;;;6.82;;
58208;SDS011;44006;52.028;4.696;2023-05-10T14:40:22;9.32;;;6.47;;
58208;SDS011;44006;52.028;4.696;2023-05-10T14:42:54;11.88;;;6.82;;
58208;SDS011;44006;52.028;4.696;2023-05-10T14:45:19;9.00;;;5.95;;
58208;SDS011;44006;52.028;4.696;2023-05-10T14:47:45;11.60;;;6.82;;
58208;SDS011;44006;52.028;4.696;2023-05-10T14:50:10;9.00;;;5.72;;
58208;SDS011;44006;52.028;4.696;2023-05-10T14:52:35;11.05;;;6.15;;
58208;SDS011;44006;52.028;4.696;2023-05-10T14:55:01;8.88;;;6.65;;
58208;SDS011;44006;52.028;4.696;2023-05-10T14:57:27;11.55;;;6.72;;
58208;SDS011;44006;52.028;4.696;2023-05-10T14:59:54;10.95;;;6.32;;
58208;SDS011;44006;52.028;4.696;2023-05-10T15:02:30;7.22;;;5.88;;